sensor_id;sensor_type;location;lat;lon;timestamp;pressure;altitude;pressure_sealevel;temperature;humidity
9538;BME280;4807;48.024;11.726;2023-05-19T00:02:00;95385.28;;;8.92;74.24
9538;BME280;4807;48.024;11.726;2023-05-19T00:05:13;95377.19;;;8.85;74.16
9538;BME280;4807;48.024;11.726;2023-05-19T00:08:25;95376.56;;;8.83;74.79
9538;BME280;4807;48.024;11.726;2023-05-19T00:11:38;95366.13;;;8.82;75.33
9538;BME280;4807;48.024;11.726;2023-05-19T00:14:49;95373.44;;;8.79;75.14
9538;BME280;4807;48.024;11.726;2023-05-19T00:17:57;95369.78;;;8.80;75.19
9538;BME280;4807;48.024;11.726;2023-05-19T00:21:06;95366.03;;;8.75;75.27
9538;BME280;4807;48.024;11.726;2023-05-19T00:24:14;95364.19;;;8.75;74.97
9538;BME280;4807;48.024;11.726;2023-05-19T00:27:23;95367.53;;;8.69;75.43
9538;BME280;4807;48.024;11.726;2023-05-19T00:30:33;95359.88;;;8.74;75.75
9538;BME280;4807;48.024;11.726;2023-05-19T00:33:41;95359.22;;;8.72;75.61
9538;BME280;4807;48.024;11.726;2023-05-19T00:36:50;95358.41;;;8.72;74.93
9538;BME280;4807;48.024;11.726;2023-05-19T00:39:58;95348.88;;;8.77;75.31
9538;BME280;4807;48.024;11.726;2023-05-19T00:43:06;95350.53;;;8.78;75.38
9538;BME280;4807;48.024;11.726;2023-05-19T00:46:17;95346.41;;;8.76;75.91
9538;BME280;4807;48.024;11.726;2023-05-19T00:49:27;95339.75;;;8.80;74.73
9538;BME280;4807;48.024;11.726;2023-05-19T00:52:35;95348.19;;;8.84;74.91
9538;BME280;4807;48.024;11.726;2023-05-19T00:55:44;95343.13;;;8.74;75.01
9538;BME280;4807;48.024;11.726;2023-05-19T00:58:54;95340.91;;;8.77;75.28
9538;BME280;4807;48.024;11.726;2023-05-19T01:02:04;95340.56;;;8.80;75.32
9538;BME280;4807;48.024;11.726;2023-05-19T01:05:13;95342.66;;;8.70;75.45
9538;BME280;4807;48.024;11.726;2023-05-19T01:08:22;95341.91;;;8.76;76.03
9538;BME280;4807;48.024;11.726;2023-05-19T01:11:30;95339.00;;;8.71;75.52
9538;BME280;4807;48.024;11.726;2023-05-19T01:14:39;95338.16;;;8.71;75.77
9538;BME280;4807;48.024;11.726;2023-05-19T01:17:59;95343.97;;;8.74;76.32
9538;BME280;4807;48.024;11.726;2023-05-19T01:29:28;95339.00;;;8.71;76.74
9538;BME280;4807;48.024;11.726;2023-05-19T01:32:41;95351.44;;;8.71;76.20
9538;BME280;4807;48.024;11.726;2023-05-19T01:35:54;95342.00;;;8.68;76.59
9538;BME280;4807;48.024;11.726;2023-05-19T01:39:03;95349.34;;;8.66;76.63
9538;BME280;4807;48.024;11.726;2023-05-19T01:42:14;95349.97;;;8.68;76.91
9538;BME280;4807;48.024;11.726;2023-05-19T01:45:23;95350.03;;;8.60;77.01
9538;BME280;4807;48.024;11.726;2023-05-19T01:48:33;95351.34;;;8.64;76.87
9538;BME280;4807;48.024;11.726;2023-05-19T01:51:42;95348.03;;;8.62;77.24
9538;BME280;4807;48.024;11.726;2023-05-19T01:54:51;95349.25;;;8.74;76.84
9538;BME280;4807;48.024;11.726;2023-05-19T01:58:08;95346.53;;;8.83;76.44
9538;BME280;4807;48.024;11.726;2023-05-19T02:01:29;95344.72;;;8.83;75.95
9538;BME280;4807;48.024;11.726;2023-05-19T02:04:47;95345.22;;;8.78;76.17
9538;BME280;4807;48.024;11.726;2023-05-19T02:08:08;95341.00;;;8.69;76.81
9538;BME280;4807;48.024;11.726;2023-05-19T02:11:26;95346.03;;;8.64;77.06
9538;BME280;4807;48.024;11.726;2023-05-19T02:14:42;95335.75;;;8.61;77.28
9538;BME280;4807;48.024;11.726;2023-05-19T02:17:54;95333.19;;;8.68;77.67
9538;BME280;4807;48.024;11.726;2023-05-19T02:21:08;95328.72;;;8.68;77.33
9538;BME280;4807;48.024;11.726;2023-05-19T02:24:19;95328.78;;;8.60;77.81
9538;BME280;4807;48.024;11.726;2023-05-19T02:27:28;95325.44;;;8.66;77.43
9538;BME280;4807;48.024;11.726;2023-05-19T02:30:36;95324.91;;;8.71;77.40
9538;BME280;4807;48.024;11.726;2023-05-19T02:33:45;95324.31;;;8.61;78.16
9538;BME280;4807;48.024;11.726;2023-05-19T02:36:54;95318.38;;;8.59;77.22
9538;BME280;4807;48.024;11.726;2023-05-19T02:40:05;95332.16;;;8.54;78.29
9538;BME280;4807;48.024;11.726;2023-05-19T02:43:14;95315.34;;;8.62;78.13
9538;BME280;4807;48.024;11.726;2023-05-19T02:46:22;95320.22;;;8.58;77.68
9538;BME280;4807;48.024;11.726;2023-05-19T02:49:31;95314.69;;;8.60;77.66
9538;BME280;4807;48.024;11.726;2023-05-19T02:52:43;95320.28;;;8.50;78.82
9538;BME280;4807;48.024;11.726;2023-05-19T02:55:51;95312.25;;;8.58;78.23
9538;BME280;4807;48.024;11.726;2023-05-19T02:59:00;95318.00;;;8.62;77.71
9538;BME280;4807;48.024;11.726;2023-05-19T03:02:08;95314.50;;;8.47;78.83
9538;BME280;4807;48.024;11.726;2023-05-19T03:05:17;95313.25;;;8.57;78.35
9538;BME280;4807;48.024;11.726;2023-05-19T03:08:27;95309.84;;;8.49;78.77
9538;BME280;4807;48.024;11.726;2023-05-19T03:11:35;95306.94;;;8.58;78.70
9538;BME280;4807;48.024;11.726;2023-05-19T03:14:44;95319.84;;;8.61;78.24
9538;BME280;4807;48.024;11.726;2023-05-19T03:17:52;95312.78;;;8.54;78.53
9538;BME280;4807;48.024;11.726;2023-05-19T03:21:00;95312.34;;;8.65;78.74
9538;BME280;4807;48.024;11.726;2023-05-19T03:24:10;95317.59;;;8.73;78.40
9538;BME280;4807;48.024;11.726;2023-05-19T03:27:18;95320.75;;;8.68;78.95
9538;BME280;4807;48.024;11.726;2023-05-19T03:30:27;95315.53;;;8.60;78.60
9538;BME280;4807;48.024;11.726;2023-05-19T03:33:47;95316.09;;;8.70;79.20
9538;BME280;4807;48.024;11.726;2023-05-19T03:36:56;95308.13;;;8.70;78.55
9538;BME280;4807;48.024;11.726;2023-05-19T03:40:08;95307.50;;;8.68;78.46
9538;BME280;4807;48.024;11.726;2023-05-19T03:43:18;95302.47;;;8.73;78.29
9538;BME280;4807;48.024;11.726;2023-05-19T03:46:33;95295.34;;;8.74;78.19
9538;BME280;4807;48.024;11.726;2023-05-19T03:50:02;95303.00;;;8.69;78.36
9538;BME280;4807;48.024;11.726;2023-05-19T03:53:36;95298.81;;;8.74;78.03
9538;BME280;4807;48.024;11.726;2023-05-19T03:56:46;95302.41;;;8.82;78.24
9538;BME280;4807;48.024;11.726;2023-05-19T03:59:55;95305.22;;;8.80;77.97
9538;BME280;4807;48.024;11.726;2023-05-19T04:03:03;95299.75;;;8.82;77.50
9538;BME280;4807;48.024;11.726;2023-05-19T04:06:12;95300.66;;;8.89;77.70
9538;BME280;4807;48.024;11.726;2023-05-19T04:09:21;95296.84;;;8.91;77.17
9538;BME280;4807;48.024;11.726;2023-05-19T04:12:31;95292.59;;;8.82;77.82
9538;BME280;4807;48.024;11.726;2023-05-19T04:15:39;95302.84;;;8.85;77.84
9538;BME280;4807;48.024;11.726;2023-05-19T04:18:48;95300.75;;;8.80;78.26
9538;BME280;4807;48.024;11.726;2023-05-19T04:21:56;95302.97;;;8.92;77.31
9538;BME280;4807;48.024;11.726;2023-05-19T04:25:06;95301.84;;;8.86;77.67
9538;BME280;4807;48.024;11.726;2023-05-19T04:28:16;95303.66;;;8.86;77.94
9538;BME280;4807;48.024;11.726;2023-05-19T04:31:25;95304.34;;;9.02;77.67
9538;BME280;4807;48.024;11.726;2023-05-19T04:34:34;95307.63;;;9.04;77.25
9538;BME280;4807;48.024;11.726;2023-05-19T04:37:47;95302.13;;;9.21;77.11
9538;BME280;4807;48.024;11.726;2023-05-19T04:40:59;95303.88;;;9.28;76.11
9538;BME280;4807;48.024;11.726;2023-05-19T04:44:09;95307.19;;;9.30;76.37
9538;BME280;4807;48.024;11.726;2023-05-19T04:47:20;95303.97;;;9.35;76.38
9538;BME280;4807;48.024;11.726;2023-05-19T04:50:28;95300.22;;;9.29;75.99
9538;BME280;4807;48.024;11.726;2023-05-19T04:53:40;95300.22;;;9.29;75.74
9538;BME280;4807;48.024;11.726;2023-05-19T04:56:51;95285.94;;;9.30;75.99
9538;BME280;4807;48.024;11.726;2023-05-19T05:00:01;95291.03;;;9.46;75.48
9538;BME280;4807;48.024;11.726;2023-05-19T05:03:24;95278.19;;;9.65;74.61
9538;BME280;4807;48.024;11.726;2023-05-19T05:06:32;95288.41;;;9.68;74.67
9538;BME280;4807;48.024;11.726;2023-05-19T05:09:45;95283.03;;;9.97;73.71
9538;BME280;4807;48.024;11.726;2023-05-19T05:12:54;95281.22;;;9.83;73.74
9538;BME280;4807;48.024;11.726;2023-05-19T05:16:06;95275.41;;;9.73;74.03
9538;BME280;4807;48.024;11.726;2023-05-19T05:19:16;95285.41;;;9.92;74.21
9538;BME280;4807;48.024;11.726;2023-05-19T05:22:25;95287.53;;;9.97;73.74
9538;BME280;4807;48.024;11.726;2023-05-19T05:25:35;95280.88;;;10.07;73.26
9538;BME280;4807;48.024;11.726;2023-05-19T05:28:44;95275.81;;;10.12;72.34
9538;BME280;4807;48.024;11.726;2023-05-19T05:31:53;95274.78;;;10.28;72.97
9538;BME280;4807;48.024;11.726;2023-05-19T05:35:03;95271.31;;;10.13;72.87
9538;BME280;4807;48.024;11.726;2023-05-19T05:38:12;95268.69;;;9.98;73.52
9538;BME280;4807;48.024;11.726;2023-05-19T05:41:22;95283.94;;;10.04;73.40
9538;BME280;4807;48.024;11.726;2023-05-19T05:44:32;95293.16;;;10.08;72.27
9538;BME280;4807;48.024;11.726;2023-05-19T05:47:45;95281.88;;;10.06;73.54
9538;BME280;4807;48.024;11.726;2023-05-19T05:50:56;95284.91;;;10.18;72.67
9538;BME280;4807;48.024;11.726;2023-05-19T05:54:11;95282.78;;;10.13;72.81
9538;BME280;4807;48.024;11.726;2023-05-19T05:57:24;95287.66;;;10.10;73.07
9538;BME280;4807;48.024;11.726;2023-05-19T06:00:33;95286.47;;;10.33;72.22
9538;BME280;4807;48.024;11.726;2023-05-19T06:03:45;95289.78;;;10.63;70.48
9538;BME280;4807;48.024;11.726;2023-05-19T06:06:59;95287.34;;;10.62;70.38
9538;BME280;4807;48.024;11.726;2023-05-19T06:10:12;95293.31;;;11.26;68.85
9538;BME280;4807;48.024;11.726;2023-05-19T06:13:22;95295.59;;;11.36;68.33
9538;BME280;4807;48.024;11.726;2023-05-19T06:16:32;95285.03;;;11.49;67.54
9538;BME280;4807;48.024;11.726;2023-05-19T06:19:42;95288.84;;;12.88;63.06
9538;BME280;4807;48.024;11.726;2023-05-19T06:22:51;95283.91;;;13.82;60.01
9538;BME280;4807;48.024;11.726;2023-05-19T06:26:01;95276.28;;;15.84;54.60
9538;BME280;4807;48.024;11.726;2023-05-19T06:29:11;95276.03;;;14.63;57.16
9538;BME280;4807;48.024;11.726;2023-05-19T06:32:19;95288.88;;;13.72;59.31
9538;BME280;4807;48.024;11.726;2023-05-19T06:35:29;95277.69;;;15.32;56.09
9538;BME280;4807;48.024;11.726;2023-05-19T06:38:38;95280.09;;;15.40;55.49
9538;BME280;4807;48.024;11.726;2023-05-19T06:41:48;95280.34;;;17.65;50.70
9538;BME280;4807;48.024;11.726;2023-05-19T06:45:17;95286.50;;;17.88;48.22
9538;BME280;4807;48.024;11.726;2023-05-19T06:48:30;95278.72;;;17.17;49.52
9538;BME280;4807;48.024;11.726;2023-05-19T06:51:40;95281.72;;;14.73;55.65
9538;BME280;4807;48.024;11.726;2023-05-19T06:54:49;95286.28;;;15.59;54.47
9538;BME280;4807;48.024;11.726;2023-05-19T06:57:58;95284.53;;;14.54;56.60
9538;BME280;4807;48.024;11.726;2023-05-19T07:01:07;95286.22;;;15.84;54.68
9538;BME280;4807;48.024;11.726;2023-05-19T07:04:22;95278.13;;;15.29;54.05
9538;BME280;4807;48.024;11.726;2023-05-19T07:07:33;95286.81;;;15.24;54.75
9538;BME280;4807;48.024;11.726;2023-05-19T07:10:42;95289.38;;;14.38;57.35
9538;BME280;4807;48.024;11.726;2023-05-19T07:13:54;95290.69;;;12.94;60.96
9538;BME280;4807;48.024;11.726;2023-05-19T07:17:06;95282.66;;;12.68;62.77
9538;BME280;4807;48.024;11.726;2023-05-19T07:20:19;95294.13;;;12.22;63.78
9538;BME280;4807;48.024;11.726;2023-05-19T07:23:29;95291.91;;;12.45;63.25
9538;BME280;4807;48.024;11.726;2023-05-19T07:26:37;95291.72;;;12.86;61.80
9538;BME280;4807;48.024;11.726;2023-05-19T07:29:45;95290.69;;;13.20;61.89
9538;BME280;4807;48.024;11.726;2023-05-19T07:32:55;95283.19;;;13.49;61.82
9538;BME280;4807;48.024;11.726;2023-05-19T07:36:04;95286.75;;;13.87;59.01
9538;BME280;4807;48.024;11.726;2023-05-19T07:39:14;95282.72;;;13.65;61.57
9538;BME280;4807;48.024;11.726;2023-05-19T07:42:22;95278.34;;;12.73;62.32
9538;BME280;4807;48.024;11.726;2023-05-19T07:45:31;95281.53;;;13.48;62.42
9538;BME280;4807;48.024;11.726;2023-05-19T07:48:39;95275.41;;;14.61;58.99
9538;BME280;4807;48.024;11.726;2023-05-19T07:51:48;95284.38;;;15.41;56.11
9538;BME280;4807;48.024;11.726;2023-05-19T07:54:58;95275.44;;;15.29;55.23
9538;BME280;4807;48.024;11.726;2023-05-19T07:58:06;95278.28;;;16.07;53.10
9538;BME280;4807;48.024;11.726;2023-05-19T08:01:15;95277.72;;;15.69;54.70
9538;BME280;4807;48.024;11.726;2023-05-19T08:04:23;95278.19;;;14.48;56.78
9538;BME280;4807;48.024;11.726;2023-05-19T08:07:31;95284.03;;;13.43;59.59
9538;BME280;4807;48.024;11.726;2023-05-19T08:10:41;95279.19;;;13.13;60.56
9538;BME280;4807;48.024;11.726;2023-05-19T08:13:49;95283.69;;;12.80;61.55
9538;BME280;4807;48.024;11.726;2023-05-19T08:16:58;95281.81;;;13.07;62.02
9538;BME280;4807;48.024;11.726;2023-05-19T08:20:08;95285.38;;;13.71;60.75
9538;BME280;4807;48.024;11.726;2023-05-19T08:23:18;95287.28;;;14.47;57.58
9538;BME280;4807;48.024;11.726;2023-05-19T08:26:28;95281.13;;;14.40;56.24
9538;BME280;4807;48.024;11.726;2023-05-19T08:29:37;95279.34;;;15.08;55.64
9538;BME280;4807;48.024;11.726;2023-05-19T08:32:45;95276.72;;;14.52;56.56
9538;BME280;4807;48.024;11.726;2023-05-19T08:35:55;95276.13;;;14.12;58.23
9538;BME280;4807;48.024;11.726;2023-05-19T08:39:04;95272.41;;;13.75;59.18
9538;BME280;4807;48.024;11.726;2023-05-19T08:42:14;95279.78;;;13.86;58.57
9538;BME280;4807;48.024;11.726;2023-05-19T08:45:22;95280.84;;;14.17;58.78
9538;BME280;4807;48.024;11.726;2023-05-19T08:48:34;95287.97;;;14.29;56.32
9538;BME280;4807;48.024;11.726;2023-05-19T08:51:53;95285.00;;;13.68;59.06
9538;BME280;4807;48.024;11.726;2023-05-19T08:55:08;95278.84;;;13.61;59.91
9538;BME280;4807;48.024;11.726;2023-05-19T08:58:20;95275.69;;;13.77;60.79
9538;BME280;4807;48.024;11.726;2023-05-19T09:01:30;95272.16;;;13.19;60.44
9538;BME280;4807;48.024;11.726;2023-05-19T09:04:40;95275.63;;;13.90;60.36
9538;BME280;4807;48.024;11.726;2023-05-19T09:07:53;95272.81;;;14.17;58.62
9538;BME280;4807;48.024;11.726;2023-05-19T09:11:02;95275.81;;;13.44;60.46
9538;BME280;4807;48.024;11.726;2023-05-19T09:14:12;95269.06;;;13.22;62.06
9538;BME280;4807;48.024;11.726;2023-05-19T09:17:20;95270.09;;;13.08;61.58
9538;BME280;4807;48.024;11.726;2023-05-19T09:20:30;95270.28;;;13.32;61.17
9538;BME280;4807;48.024;11.726;2023-05-19T09:23:40;95263.09;;;13.26;61.53
9538;BME280;4807;48.024;11.726;2023-05-19T09:26:48;95259.84;;;12.85;62.36
9538;BME280;4807;48.024;11.726;2023-05-19T09:30:06;95264.78;;;12.75;64.08
9538;BME280;4807;48.024;11.726;2023-05-19T09:33:18;95269.69;;;13.04;63.06
9538;BME280;4807;48.024;11.726;2023-05-19T09:36:28;95260.69;;;12.72;63.04
9538;BME280;4807;48.024;11.726;2023-05-19T09:39:38;95262.31;;;12.60;63.65
9538;BME280;4807;48.024;11.726;2023-05-19T09:42:46;95264.59;;;12.56;63.07
9538;BME280;4807;48.024;11.726;2023-05-19T09:45:58;95265.00;;;12.60;64.11
9538;BME280;4807;48.024;11.726;2023-05-19T09:49:08;95255.94;;;12.87;63.34
9538;BME280;4807;48.024;11.726;2023-05-19T09:52:17;95244.41;;;13.00;62.66
9538;BME280;4807;48.024;11.726;2023-05-19T09:55:28;95255.97;;;12.81;62.52
9538;BME280;4807;48.024;11.726;2023-05-19T09:58:41;95258.38;;;13.09;62.87
9538;BME280;4807;48.024;11.726;2023-05-19T10:01:53;95255.75;;;12.89;63.28
9538;BME280;4807;48.024;11.726;2023-05-19T10:05:03;95257.75;;;13.00;63.32
9538;BME280;4807;48.024;11.726;2023-05-19T10:08:13;95259.41;;;13.01;63.63
9538;BME280;4807;48.024;11.726;2023-05-19T10:11:24;95252.06;;;12.64;64.48
9538;BME280;4807;48.024;11.726;2023-05-19T10:14:43;95250.38;;;12.76;63.88
9538;BME280;4807;48.024;11.726;2023-05-19T10:17:55;95265.59;;;12.75;63.56
9538;BME280;4807;48.024;11.726;2023-05-19T10:21:04;95252.03;;;12.83;63.91
9538;BME280;4807;48.024;11.726;2023-05-19T10:24:15;95251.25;;;12.56;63.91
9538;BME280;4807;48.024;11.726;2023-05-19T10:27:26;95250.59;;;12.68;64.81
9538;BME280;4807;48.024;11.726;2023-05-19T10:30:40;95248.50;;;13.16;63.04
9538;BME280;4807;48.024;11.726;2023-05-19T10:34:20;95247.94;;;13.65;60.67
9538;BME280;4807;48.024;11.726;2023-05-19T10:37:40;95247.06;;;13.07;62.11
9538;BME280;4807;48.024;11.726;2023-05-19T10:41:01;95249.69;;;13.40;62.02
9538;BME280;4807;48.024;11.726;2023-05-19T10:44:22;95245.50;;;13.57;61.02
9538;BME280;4807;48.024;11.726;2023-05-19T10:47:35;95241.31;;;13.74;60.26
9538;BME280;4807;48.024;11.726;2023-05-19T10:50:46;95241.28;;;13.23;61.27
9538;BME280;4807;48.024;11.726;2023-05-19T10:53:54;95241.31;;;13.16;62.71
9538;BME280;4807;48.024;11.726;2023-05-19T10:57:05;95247.91;;;13.20;62.57
9538;BME280;4807;48.024;11.726;2023-05-19T11:00:27;95238.84;;;13.15;62.62
9538;BME280;4807;48.024;11.726;2023-05-19T11:03:49;95238.72;;;13.61;60.20
9538;BME280;4807;48.024;11.726;2023-05-19T11:07:01;95238.28;;;14.40;59.33
9538;BME280;4807;48.024;11.726;2023-05-19T11:10:11;95242.28;;;14.80;57.11
9538;BME280;4807;48.024;11.726;2023-05-19T11:13:20;95231.00;;;14.16;59.03
9538;BME280;4807;48.024;11.726;2023-05-19T11:16:31;95230.19;;;15.33;57.02
9538;BME280;4807;48.024;11.726;2023-05-19T11:19:51;95231.63;;;14.49;57.75
9538;BME280;4807;48.024;11.726;2023-05-19T11:23:08;95224.34;;;14.81;57.31
9538;BME280;4807;48.024;11.726;2023-05-19T11:26:41;95225.50;;;15.28;55.70
9538;BME280;4807;48.024;11.726;2023-05-19T11:29:50;95231.47;;;15.12;56.26
9538;BME280;4807;48.024;11.726;2023-05-19T11:32:59;95230.47;;;14.63;57.25
9538;BME280;4807;48.024;11.726;2023-05-19T11:36:08;95226.91;;;14.69;57.57
9538;BME280;4807;48.024;11.726;2023-05-19T11:39:20;95220.81;;;15.05;56.88
9538;BME280;4807;48.024;11.726;2023-05-19T11:42:30;95225.16;;;15.61;56.03
9538;BME280;4807;48.024;11.726;2023-05-19T11:45:40;95232.94;;;15.26;54.91
9538;BME280;4807;48.024;11.726;2023-05-19T11:48:49;95230.16;;;15.39;56.09
9538;BME280;4807;48.024;11.726;2023-05-19T11:51:59;95232.91;;;14.40;57.49
9538;BME280;4807;48.024;11.726;2023-05-19T11:55:14;95231.81;;;14.16;58.92
9538;BME280;4807;48.024;11.726;2023-05-19T11:58:24;95234.97;;;14.38;58.74
9538;BME280;4807;48.024;11.726;2023-05-19T12:01:35;95220.38;;;14.02;60.48
9538;BME280;4807;48.024;11.726;2023-05-19T12:04:44;95236.28;;;13.53;60.70
9538;BME280;4807;48.024;11.726;2023-05-19T12:07:53;95227.34;;;13.21;61.45
9538;BME280;4807;48.024;11.726;2023-05-19T12:11:04;95237.09;;;13.53;61.45
9538;BME280;4807;48.024;11.726;2023-05-19T12:14:13;95233.88;;;13.25;61.71
9538;BME280;4807;48.024;11.726;2023-05-19T12:17:21;95230.63;;;13.16;62.65
9538;BME280;4807;48.024;11.726;2023-05-19T12:20:31;95233.25;;;13.36;61.68
9538;BME280;4807;48.024;11.726;2023-05-19T12:23:42;95235.53;;;13.26;62.01
9538;BME280;4807;48.024;11.726;2023-05-19T12:27:05;95233.06;;;13.24;61.97
9538;BME280;4807;48.024;11.726;2023-05-19T12:30:15;95225.09;;;13.69;61.04
9538;BME280;4807;48.024;11.726;2023-05-19T12:33:24;95230.78;;;13.79;60.79
9538;BME280;4807;48.024;11.726;2023-05-19T12:36:34;95227.75;;;13.69;61.18
9538;BME280;4807;48.024;11.726;2023-05-19T12:39:43;95222.41;;;14.07;60.21
9538;BME280;4807;48.024;11.726;2023-05-19T12:42:55;95221.00;;;14.29;59.39
9538;BME280;4807;48.024;11.726;2023-05-19T12:46:09;95220.97;;;14.85;58.77
9538;BME280;4807;48.024;11.726;2023-05-19T12:49:18;95218.69;;;15.32;57.16
9538;BME280;4807;48.024;11.726;2023-05-19T12:52:28;95229.78;;;14.93;56.46
9538;BME280;4807;48.024;11.726;2023-05-19T12:55:38;95221.88;;;15.22;56.30
9538;BME280;4807;48.024;11.726;2023-05-19T12:58:54;95212.47;;;15.50;54.18
9538;BME280;4807;48.024;11.726;2023-05-19T13:02:03;95214.88;;;15.58;54.37
9538;BME280;4807;48.024;11.726;2023-05-19T13:05:11;95214.53;;;15.11;56.81
9538;BME280;4807;48.024;11.726;2023-05-19T13:08:21;95201.88;;;15.37;57.40
9538;BME280;4807;48.024;11.726;2023-05-19T13:11:30;95207.63;;;15.04;56.42
9538;BME280;4807;48.024;11.726;2023-05-19T13:14:40;95208.88;;;15.01;57.02
9538;BME280;4807;48.024;11.726;2023-05-19T13:17:49;95205.97;;;15.76;55.69
9538;BME280;4807;48.024;11.726;2023-05-19T13:20:58;95212.03;;;15.71;55.32
9538;BME280;4807;48.024;11.726;2023-05-19T13:24:07;95213.69;;;14.93;55.72
9538;BME280;4807;48.024;11.726;2023-05-19T13:27:15;95204.78;;;14.99;56.56
9538;BME280;4807;48.024;11.726;2023-05-19T13:30:25;95208.00;;;14.64;57.06
9538;BME280;4807;48.024;11.726;2023-05-19T13:33:34;95201.72;;;14.95;56.21
9538;BME280;4807;48.024;11.726;2023-05-19T13:36:42;95201.22;;;15.59;55.64
9538;BME280;4807;48.024;11.726;2023-05-19T13:39:54;95198.03;;;14.71;56.94
9538;BME280;4807;48.024;11.726;2023-05-19T13:43:04;95189.06;;;15.57;57.09
9538;BME280;4807;48.024;11.726;2023-05-19T13:46:15;95190.09;;;16.46;53.66
9538;BME280;4807;48.024;11.726;2023-05-19T13:49:25;95189.50;;;16.02;53.44
9538;BME280;4807;48.024;11.726;2023-05-19T13:52:34;95178.38;;;16.40;53.48
9538;BME280;4807;48.024;11.726;2023-05-19T13:55:42;95177.13;;;16.01;53.35
9538;BME280;4807;48.024;11.726;2023-05-19T13:58:52;95181.22;;;15.01;55.71
9538;BME280;4807;48.024;11.726;2023-05-19T14:02:03;95173.22;;;15.55;55.53
9538;BME280;4807;48.024;11.726;2023-05-19T14:05:12;95177.94;;;16.01;53.92
9538;BME280;4807;48.024;11.726;2023-05-19T14:08:21;95171.03;;;15.64;56.41
9538;BME280;4807;48.024;11.726;2023-05-19T14:11:29;95182.44;;;15.41;55.22
9538;BME280;4807;48.024;11.726;2023-05-19T14:14:38;95179.88;;;14.73;57.19
9538;BME280;4807;48.024;11.726;2023-05-19T14:17:49;95186.22;;;13.98;58.67
9538;BME280;4807;48.024;11.726;2023-05-19T14:21:00;95182.53;;;13.92;60.40
9538;BME280;4807;48.024;11.726;2023-05-19T14:24:09;95181.22;;;14.08;59.74
9538;BME280;4807;48.024;11.726;2023-05-19T14:27:17;95175.03;;;14.07;59.41
9538;BME280;4807;48.024;11.726;2023-05-19T14:30:27;95173.56;;;14.43;59.60
9538;BME280;4807;48.024;11.726;2023-05-19T14:33:38;95168.44;;;15.03;59.07
9538;BME280;4807;48.024;11.726;2023-05-19T14:36:49;95172.19;;;15.56;57.83
9538;BME280;4807;48.024;11.726;2023-05-19T14:39:58;95190.25;;;15.24;55.80
9538;BME280;4807;48.024;11.726;2023-05-19T14:43:07;95180.56;;;15.60;58.31
9538;BME280;4807;48.024;11.726;2023-05-19T14:46:15;95174.94;;;16.10;56.03
9538;BME280;4807;48.024;11.726;2023-05-19T14:49:26;95174.81;;;16.05;54.93
9538;BME280;4807;48.024;11.726;2023-05-19T14:52:35;95174.81;;;16.05;55.26
9538;BME280;4807;48.024;11.726;2023-05-19T14:55:46;95166.31;;;16.84;54.69
9538;BME280;4807;48.024;11.726;2023-05-19T14:58:55;95161.75;;;16.85;53.35
9538;BME280;4807;48.024;11.726;2023-05-19T15:02:04;95158.72;;;16.69;53.25
9538;BME280;4807;48.024;11.726;2023-05-19T15:05:14;95170.13;;;17.11;53.11
9538;BME280;4807;48.024;11.726;2023-05-19T15:08:23;95168.06;;;17.02;52.53
9538;BME280;4807;48.024;11.726;2023-05-19T15:11:32;95158.66;;;16.34;53.74
9538;BME280;4807;48.024;11.726;2023-05-19T15:14:40;95161.22;;;15.88;56.15
9538;BME280;4807;48.024;11.726;2023-05-19T15:17:49;95161.22;;;15.88;56.60
9538;BME280;4807;48.024;11.726;2023-05-19T15:20:59;95152.28;;;15.76;55.88
9538;BME280;4807;48.024;11.726;2023-05-19T15:24:08;95145.28;;;16.05;56.76
9538;BME280;4807;48.024;11.726;2023-05-19T15:27:18;95152.47;;;16.46;55.06
9538;BME280;4807;48.024;11.726;2023-05-19T15:30:27;95145.09;;;16.29;55.99
9538;BME280;4807;48.024;11.726;2023-05-19T15:33:38;95148.22;;;16.26;55.58
9538;BME280;4807;48.024;11.726;2023-05-19T15:36:49;95144.84;;;16.19;56.16
9538;BME280;4807;48.024;11.726;2023-05-19T15:39:58;95148.59;;;16.41;56.25
9538;BME280;4807;48.024;11.726;2023-05-19T15:43:06;95144.31;;;16.64;56.11
9538;BME280;4807;48.024;11.726;2023-05-19T15:46:15;95143.34;;;17.16;55.62
9538;BME280;4807;48.024;11.726;2023-05-19T15:49:29;95135.59;;;17.32;53.25
9538;BME280;4807;48.024;11.726;2023-05-19T15:52:39;95131.03;;;17.72;52.97
9538;BME280;4807;48.024;11.726;2023-05-19T15:55:47;95128.94;;;17.74;52.14
9538;BME280;4807;48.024;11.726;2023-05-19T15:58:56;95124.41;;;18.08;52.23
9538;BME280;4807;48.024;11.726;2023-05-19T16:02:05;95120.69;;;18.43;52.42
9538;BME280;4807;48.024;11.726;2023-05-19T16:05:14;95121.44;;;17.93;51.83
9538;BME280;4807;48.024;11.726;2023-05-19T16:08:26;95117.69;;;17.94;51.45
9538;BME280;4807;48.024;11.726;2023-05-19T16:11:36;95119.09;;;17.68;53.05
9538;BME280;4807;48.024;11.726;2023-05-19T16:14:49;95108.16;;;16.95;53.60
9538;BME280;4807;48.024;11.726;2023-05-19T16:17:58;95108.41;;;16.47;55.04
9538;BME280;4807;48.024;11.726;2023-05-19T16:21:07;95101.41;;;16.46;55.81
9538;BME280;4807;48.024;11.726;2023-05-19T16:24:19;95106.31;;;16.37;55.86
9538;BME280;4807;48.024;11.726;2023-05-19T16:27:28;95098.13;;;16.55;55.80
9538;BME280;4807;48.024;11.726;2023-05-19T16:30:37;95100.13;;;16.60;56.77
9538;BME280;4807;48.024;11.726;2023-05-19T16:33:45;95093.56;;;16.91;56.10
9538;BME280;4807;48.024;11.726;2023-05-19T16:36:54;95093.69;;;16.84;56.08
9538;BME280;4807;48.024;11.726;2023-05-19T16:40:06;95094.31;;;17.26;55.47
9538;BME280;4807;48.024;11.726;2023-05-19T16:43:17;95078.97;;;16.75;54.48
9538;BME280;4807;48.024;11.726;2023-05-19T16:46:26;95078.16;;;16.63;55.11
9538;BME280;4807;48.024;11.726;2023-05-19T16:49:37;95076.16;;;16.23;56.85
9538;BME280;4807;48.024;11.726;2023-05-19T16:52:46;95080.25;;;16.26;57.36
9538;BME280;4807;48.024;11.726;2023-05-19T16:55:56;95068.13;;;15.82;58.14
9538;BME280;4807;48.024;11.726;2023-05-19T16:59:07;95081.38;;;15.95;58.83
9538;BME280;4807;48.024;11.726;2023-05-19T17:02:16;95068.78;;;16.30;57.76
9538;BME280;4807;48.024;11.726;2023-05-19T17:05:24;95067.03;;;16.13;58.71
9538;BME280;4807;48.024;11.726;2023-05-19T17:08:33;95067.63;;;16.50;57.63
9538;BME280;4807;48.024;11.726;2023-05-19T17:11:43;95069.59;;;16.54;57.02
9538;BME280;4807;48.024;11.726;2023-05-19T17:14:52;95074.28;;;16.59;57.50
9538;BME280;4807;48.024;11.726;2023-05-19T17:18:00;95066.22;;;16.59;57.77